createdAt,value
2023-03-16T00:00:13.757Z,16.83
2023-03-16T00:02:41.881Z,15.43
2023-03-16T00:05:10.200Z,13.00
2023-03-16T00:07:36.945Z,16.13
2023-03-16T00:10:03.674Z,17.90
2023-03-16T00:12:30.248Z,15.07
2023-03-16T00:14:56.756Z,18.13
2023-03-16T00:17:23.795Z,16.07
2023-03-16T00:19:56.107Z,17.00
2023-03-16T00:22:24.635Z,12.43
2023-03-16T00:24:52.865Z,19.17
2023-03-16T00:27:22.928Z,14.50
2023-03-16T00:29:55.940Z,15.47
2023-03-16T00:32:28.598Z,16.70
2023-03-16T00:34:55.873Z,14.00
2023-03-16T00:37:24.163Z,16.30
2023-03-16T00:39:51.945Z,15.20
2023-03-16T00:42:20.180Z,15.90
2023-03-16T00:44:46.883Z,15.50
2023-03-16T00:47:17.159Z,15.30
2023-03-16T01:10:54.963Z,16.30
2023-03-16T01:13:22.242Z,15.00
2023-03-16T01:15:52.533Z,16.00
2023-03-16T01:18:20.287Z,14.30
2023-03-16T01:20:50.755Z,16.57
2023-03-16T01:23:18.481Z,13.30
2023-03-16T01:25:52.806Z,15.50
2023-03-16T01:28:24.744Z,17.47
2023-03-16T01:30:58.402Z,12.37
2023-03-16T01:33:26.327Z,18.83
2023-03-16T01:35:58.653Z,16.40
2023-03-16T01:38:26.009Z,15.03
2023-03-16T01:40:53.910Z,17.47
2023-03-16T01:43:31.732Z,16.73
2023-03-16T01:46:04.703Z,15.43
2023-03-16T01:48:37.204Z,19.67
2023-03-16T01:51:10.205Z,18.47
2023-03-16T01:53:38.529Z,17.13
2023-03-16T01:56:08.438Z,17.87
2023-03-16T01:58:35.758Z,18.03
2023-03-16T02:01:02.681Z,19.00
2023-03-16T02:03:30.083Z,16.70
2023-03-16T02:06:05.189Z,17.77
2023-03-16T02:08:32.266Z,16.73
2023-03-16T02:10:58.820Z,17.17
2023-03-16T02:13:26.081Z,16.63
2023-03-16T02:15:53.573Z,16.53
2023-03-16T02:18:23.006Z,16.77
2023-03-16T02:21:03.043Z,18.00
2023-03-16T02:23:29.702Z,15.87
2023-03-16T02:26:04.153Z,15.10
2023-03-16T02:29:00.314Z,18.07
2023-03-16T02:31:27.174Z,19.33
2023-03-16T02:33:54.220Z,21.00
2023-03-16T02:36:20.963Z,15.83
2023-03-16T02:38:47.646Z,17.07
2023-03-16T02:41:16.451Z,19.87
2023-03-16T02:44:29.622Z,20.40
2023-03-16T02:46:58.498Z,19.63
2023-03-16T02:49:35.040Z,18.27
2023-03-16T02:52:01.656Z,15.97
2023-03-16T02:54:28.124Z,22.70
2023-03-16T02:56:54.724Z,19.23
2023-03-16T02:59:21.515Z,17.80
2023-03-16T03:01:48.172Z,21.17
2023-03-16T03:04:14.871Z,19.73
2023-03-16T03:06:41.750Z,17.70
2023-03-16T03:09:11.411Z,17.10
2023-03-16T03:11:38.223Z,18.57
2023-03-16T03:14:05.106Z,21.33
2023-03-16T03:16:32.056Z,20.90
2023-03-16T03:18:59.319Z,28.83
2023-03-16T03:21:28.308Z,22.70
2023-03-16T03:23:55.079Z,25.80
2023-03-16T03:26:21.678Z,24.50
2023-03-16T03:28:48.194Z,21.40
2023-03-16T03:31:20.020Z,22.37
2023-03-16T03:33:46.632Z,23.23
2023-03-16T03:36:13.986Z,27.03
2023-03-16T03:38:40.657Z,25.83
2023-03-16T03:41:08.029Z,22.90
2023-03-16T03:43:35.123Z,31.27
2023-03-16T03:46:02.848Z,26.80
2023-03-16T03:48:29.535Z,26.63
2023-03-16T03:50:56.051Z,28.83
2023-03-16T03:53:22.546Z,26.27
2023-03-16T03:55:49.889Z,25.07
2023-03-16T03:58:16.605Z,29.23
2023-03-16T04:00:43.296Z,27.70
2023-03-16T04:03:09.930Z,23.57
2023-03-16T04:05:36.544Z,25.70
2023-03-16T04:08:03.030Z,29.40
2023-03-16T04:10:30.640Z,25.23
2023-03-16T04:12:58.306Z,23.67
2023-03-16T04:15:25.382Z,24.47
2023-03-16T04:17:52.671Z,26.87
2023-03-16T04:20:20.050Z,31.57
2023-03-16T04:22:47.412Z,30.90
2023-03-16T04:25:15.985Z,22.00
2023-03-16T04:27:42.924Z,28.20
2023-03-16T04:30:13.410Z,26.57
2023-03-16T04:32:40.598Z,23.57
2023-03-16T04:35:07.613Z,25.67
2023-03-16T04:37:34.637Z,26.20
2023-03-16T04:40:04.617Z,24.90
2023-03-16T04:42:31.485Z,27.43
2023-03-16T04:44:57.942Z,23.40
2023-03-16T04:47:24.362Z,26.17
2023-03-16T04:49:50.786Z,25.70
2023-03-16T04:52:17.225Z,23.50
2023-03-16T04:54:43.768Z,28.40
2023-03-16T04:57:10.276Z,26.60
2023-03-16T04:59:36.757Z,29.07
2023-03-16T05:02:04.074Z,25.97
2023-03-16T05:04:30.690Z,27.13
2023-03-16T05:06:57.603Z,25.73
2023-03-16T05:09:24.145Z,27.23
2023-03-16T05:11:50.819Z,29.60
2023-03-16T05:14:17.256Z,24.37
2023-03-16T05:16:43.860Z,23.23
2023-03-16T05:19:10.372Z,24.33
2023-03-16T05:21:38.724Z,28.97
2023-03-16T05:24:06.053Z,26.43
2023-03-16T05:26:32.590Z,27.67
2023-03-16T05:28:59.096Z,26.33
2023-03-16T05:31:32.643Z,27.10
2023-03-16T05:33:59.620Z,26.83
2023-03-16T05:36:26.156Z,37.83
2023-03-16T05:38:52.754Z,31.23
2023-03-16T05:41:21.405Z,30.33
2023-03-16T05:43:47.952Z,27.00
2023-03-16T05:46:14.463Z,25.50
2023-03-16T05:48:41.142Z,26.63
2023-03-16T05:51:07.626Z,26.03
2023-03-16T05:53:35.513Z,24.57
2023-03-16T05:56:02.550Z,31.17
2023-03-16T05:58:29.001Z,25.53
2023-03-16T06:00:55.561Z,40.37
2023-03-16T06:03:22.872Z,40.50
2023-03-16T06:05:49.553Z,45.03
2023-03-16T06:08:16.039Z,42.43
2023-03-16T06:10:42.429Z,36.23
2023-03-16T06:13:08.866Z,30.90
2023-03-16T06:15:35.297Z,30.53
2023-03-16T06:18:01.931Z,18.50
2023-03-16T06:20:28.654Z,20.10
2023-03-16T06:22:55.233Z,21.93
2023-03-16T06:25:21.843Z,18.73
2023-03-16T06:27:49.543Z,14.20
2023-03-16T06:30:16.332Z,17.17
2023-03-16T06:32:43.097Z,14.17
2023-03-16T06:35:10.320Z,16.47
2023-03-16T06:37:37.193Z,19.73
2023-03-16T06:40:04.498Z,17.27
2023-03-16T06:42:30.961Z,16.17
2023-03-16T06:44:57.509Z,14.73
2023-03-16T06:47:24.106Z,16.20
2023-03-16T06:49:51.836Z,15.17
2023-03-16T06:52:18.294Z,13.73
2023-03-16T06:54:44.855Z,13.73
2023-03-16T06:57:11.657Z,13.43
2023-03-16T06:59:38.196Z,14.00
2023-03-16T07:02:04.691Z,14.57
2023-03-16T07:04:31.217Z,10.60
2023-03-16T07:06:57.747Z,13.13
2023-03-16T07:09:24.267Z,13.47
2023-03-16T07:11:52.646Z,14.63
2023-03-16T07:14:19.982Z,15.80
2023-03-16T07:16:46.511Z,13.50
2023-03-16T07:19:12.985Z,13.13
2023-03-16T07:21:40.800Z,12.30
2023-03-16T07:24:09.100Z,14.07
2023-03-16T07:26:35.664Z,12.47
2023-03-16T07:29:06.267Z,11.83
2023-03-16T07:31:34.550Z,12.37
2023-03-16T07:34:02.486Z,13.27
2023-03-16T07:36:29.300Z,10.63
2023-03-16T07:38:55.906Z,10.23
2023-03-16T07:41:22.358Z,10.63
2023-03-16T07:43:48.893Z,10.37
2023-03-16T07:46:15.596Z,10.93
2023-03-16T07:48:43.670Z,10.67
2023-03-16T07:51:13.841Z,10.93
2023-03-16T07:53:40.735Z,13.23
2023-03-16T07:56:08.005Z,13.33
2023-03-16T07:58:34.570Z,11.70
2023-03-16T08:01:01.639Z,11.47
2023-03-16T08:03:29.979Z,14.93
2023-03-16T08:05:56.495Z,15.23
2023-03-16T08:08:23.556Z,9.57
2023-03-16T08:10:52.741Z,12.47
2023-03-16T08:13:20.429Z,11.17
2023-03-16T08:15:58.371Z,12.13
2023-03-16T08:18:30.002Z,11.27
2023-03-16T08:20:57.463Z,13.88
2023-03-16T08:23:25.212Z,10.05
2023-03-16T08:25:56.130Z,10.75
2023-03-16T08:28:22.886Z,12.35
2023-03-16T08:30:51.074Z,8.68
2023-03-16T08:33:18.024Z,9.82
2023-03-16T08:35:44.846Z,11.23
2023-03-16T08:38:12.128Z,9.77
2023-03-16T08:40:42.087Z,10.32
2023-03-16T08:43:08.884Z,10.10
2023-03-16T08:45:35.457Z,10.32
2023-03-16T08:48:02.096Z,10.45
2023-03-16T08:50:28.806Z,10.40
2023-03-16T08:52:55.440Z,8.93
2023-03-16T08:55:21.950Z,8.65
2023-03-16T08:57:48.787Z,9.57
2023-03-16T09:00:16.083Z,13.73
2023-03-16T09:02:43.437Z,9.20
2023-03-16T09:05:11.511Z,9.60
2023-03-16T09:07:39.360Z,8.07
2023-03-16T09:10:07.476Z,7.95
2023-03-16T09:12:37.986Z,7.95
2023-03-16T09:15:05.755Z,9.68
2023-03-16T09:17:32.341Z,7.85
2023-03-16T09:20:05.507Z,6.13
2023-03-16T09:22:36.386Z,9.52
2023-03-16T09:25:07.207Z,8.38
2023-03-16T09:27:34.011Z,8.18
2023-03-16T09:30:01.854Z,6.55
2023-03-16T09:32:28.555Z,7.05
2023-03-16T09:34:55.353Z,7.05
2023-03-16T09:37:22.408Z,7.65
2023-03-16T09:39:49.580Z,5.75
2023-03-16T09:42:34.991Z,9.23
2023-03-16T09:45:34.351Z,6.40
2023-03-16T09:48:03.914Z,5.82
2023-03-16T09:50:47.799Z,7.03
2023-03-16T09:53:25.897Z,5.57
2023-03-16T09:55:55.300Z,4.30
2023-03-16T09:58:22.702Z,8.65
2023-03-16T10:01:09.944Z,6.18
2023-03-16T10:04:01.817Z,6.65
2023-03-16T10:06:28.650Z,6.55
2023-03-16T10:09:04.136Z,6.00
2023-03-16T10:11:33.888Z,4.88
2023-03-16T10:14:14.022Z,4.72
2023-03-16T10:16:48.557Z,5.40
2023-03-16T10:19:42.510Z,7.95
2023-03-16T10:22:34.912Z,5.22
2023-03-16T10:25:07.993Z,5.88
2023-03-16T10:27:36.892Z,6.35
2023-03-16T10:30:14.801Z,7.30
2023-03-16T10:32:41.440Z,4.07
2023-03-16T10:35:45.690Z,4.95
2023-03-16T10:38:40.953Z,4.15
2023-03-16T10:41:22.706Z,4.53
2023-03-16T10:44:08.548Z,6.22
2023-03-16T10:46:48.583Z,5.82
2023-03-16T10:49:48.757Z,7.50
2023-03-16T10:52:34.531Z,8.93
2023-03-16T10:55:07.512Z,4.82
2023-03-16T10:57:41.451Z,5.88
2023-03-16T11:00:15.316Z,3.45
2023-03-16T11:02:43.037Z,5.78
2023-03-16T11:05:24.878Z,6.50
2023-03-16T11:08:10.676Z,10.13
2023-03-16T11:10:49.432Z,7.57
2023-03-16T11:13:20.642Z,6.47
2023-03-16T11:16:00.286Z,5.90
2023-03-16T11:18:36.987Z,4.97
2023-03-16T11:21:09.522Z,5.93
2023-03-16T11:23:39.379Z,5.85
2023-03-16T11:26:13.301Z,6.75
2023-03-16T11:28:50.617Z,4.18
2023-03-16T11:31:27.615Z,7.00
2023-03-16T11:33:57.392Z,6.57
2023-03-16T11:36:27.996Z,5.85
2023-03-16T11:39:20.443Z,3.85
2023-03-16T11:41:59.014Z,4.18
2023-03-16T11:44:33.851Z,5.55
2023-03-16T11:47:17.817Z,5.15
2023-03-16T11:50:07.675Z,5.50
2023-03-16T11:52:56.225Z,3.97
2023-03-16T11:55:25.907Z,4.57
2023-03-16T11:58:20.496Z,2.90
2023-03-16T12:00:57.888Z,4.25
2023-03-16T12:03:34.096Z,2.90
2023-03-16T12:06:34.968Z,3.05
2023-03-16T12:09:16.586Z,5.60
2023-03-16T12:12:02.092Z,4.88
2023-03-16T12:14:42.691Z,6.03
2023-03-16T12:17:16.730Z,4.75
2023-03-16T12:19:50.716Z,4.82
2023-03-16T12:22:22.641Z,4.60
2023-03-16T12:24:50.431Z,4.00
2023-03-16T12:27:20.578Z,4.82
2023-03-16T12:29:56.987Z,3.63
2023-03-16T12:32:36.593Z,5.85
2023-03-16T12:35:16.643Z,3.87
2023-03-16T12:38:04.512Z,5.03
2023-03-16T12:40:51.130Z,4.90
2023-03-16T12:43:39.357Z,5.93
2023-03-16T12:46:14.368Z,5.13
2023-03-16T12:48:49.273Z,6.00
2023-03-16T12:51:16.120Z,5.27
2023-03-16T12:53:53.310Z,3.17
2023-03-16T12:56:29.550Z,5.07
2023-03-16T12:59:02.080Z,4.30
2023-03-16T13:01:42.591Z,4.83
2023-03-16T13:04:21.804Z,4.27
2023-03-16T13:06:51.043Z,3.80
2023-03-16T13:09:21.956Z,5.17
2023-03-16T13:11:53.356Z,4.93
2023-03-16T13:14:38.558Z,4.60
2023-03-16T13:17:16.242Z,7.40
2023-03-16T13:19:47.933Z,4.50
2023-03-16T13:22:26.176Z,6.33
2023-03-16T13:25:12.526Z,5.17
2023-03-16T13:27:40.696Z,5.57
2023-03-16T13:30:32.668Z,5.97
2023-03-16T13:33:30.089Z,6.60
2023-03-16T13:35:57.906Z,5.50
2023-03-16T13:38:27.507Z,5.27
2023-03-16T13:41:02.601Z,5.70
2023-03-16T13:43:32.898Z,4.80
2023-03-16T13:45:59.979Z,4.33
2023-03-16T13:48:26.545Z,4.17
2023-03-16T13:50:55.521Z,5.57
2023-03-16T13:53:24.976Z,4.30
2023-03-16T13:55:52.820Z,5.27
2023-03-16T13:58:23.852Z,5.43
2023-03-16T14:00:55.393Z,4.67
2023-03-16T14:03:22.520Z,7.70
2023-03-16T14:05:49.542Z,4.37
2023-03-16T14:08:19.613Z,6.77
2023-03-16T14:10:46.883Z,4.77
2023-03-16T14:13:29.074Z,5.30
2023-03-16T14:15:58.216Z,4.83
2023-03-16T14:18:32.478Z,9.67
2023-03-16T14:20:58.999Z,6.37
2023-03-16T14:23:35.768Z,6.63
2023-03-16T14:26:04.974Z,7.30
2023-03-16T14:28:33.698Z,6.77
2023-03-16T14:31:10.343Z,4.33
2023-03-16T14:33:41.340Z,3.30
2023-03-16T14:36:19.056Z,7.43
2023-03-16T14:38:48.750Z,6.63
2023-03-16T14:41:23.094Z,4.97
2023-03-16T14:43:56.280Z,4.43
2023-03-16T14:46:31.592Z,6.57
2023-03-16T14:49:28.045Z,6.13
2023-03-16T14:51:59.050Z,5.77
2023-03-16T14:54:26.611Z,6.17
2023-03-16T14:56:55.456Z,5.90
2023-03-16T14:59:22.191Z,4.17
2023-03-16T15:01:49.701Z,6.47
2023-03-16T15:04:20.829Z,5.53
2023-03-16T15:06:47.424Z,4.33
2023-03-16T15:09:31.487Z,5.23
2023-03-16T15:11:58.119Z,3.90
2023-03-16T15:14:43.287Z,6.20
2023-03-16T15:17:11.001Z,5.33
2023-03-16T15:19:37.669Z,5.67
2023-03-16T15:22:04.916Z,7.73
2023-03-16T15:24:33.243Z,8.20
2023-03-16T15:27:00.660Z,8.43
2023-03-16T15:29:27.764Z,5.73
2023-03-16T15:31:54.744Z,6.37
2023-03-16T15:34:22.742Z,6.50
2023-03-16T15:36:49.628Z,7.63
2023-03-16T15:39:25.251Z,5.37
2023-03-16T15:41:51.950Z,8.13
2023-03-16T15:44:18.689Z,9.97
2023-03-16T15:46:48.210Z,7.07
2023-03-16T15:49:15.436Z,11.33
2023-03-16T15:51:42.153Z,7.67
2023-03-16T15:54:09.793Z,8.60
2023-03-16T15:56:52.699Z,8.37
2023-03-16T15:59:22.306Z,11.37
2023-03-16T16:01:49.532Z,10.03
2023-03-16T16:04:24.373Z,9.87
2023-03-16T16:06:55.066Z,10.10
2023-03-16T16:09:22.346Z,9.80
2023-03-16T16:11:50.478Z,10.23
2023-03-16T16:14:20.760Z,8.37
2023-03-16T16:16:48.022Z,10.83
2023-03-16T16:19:16.017Z,7.93
2023-03-16T16:21:43.964Z,11.33
2023-03-16T16:24:10.988Z,8.07
2023-03-16T16:26:49.882Z,8.13
2023-03-16T16:29:22.405Z,11.67
2023-03-16T16:31:49.122Z,10.67
2023-03-16T16:34:18.217Z,12.97
2023-03-16T16:36:45.119Z,12.27
2023-03-16T16:39:11.915Z,10.63
2023-03-16T16:41:39.156Z,8.90
2023-03-16T16:44:16.894Z,9.93
2023-03-16T16:46:44.105Z,9.83
2023-03-16T16:49:23.709Z,9.83
2023-03-16T16:52:56.529Z,12.17
2023-03-16T17:01:03.561Z,12.03
2023-03-16T17:03:59.041Z,10.10
2023-03-16T17:10:27.627Z,12.57
2023-03-16T17:13:21.290Z,12.50
2023-03-16T17:16:07.804Z,9.00
2023-03-16T17:18:55.327Z,10.43
2023-03-16T18:09:54.201Z,10.23
2023-03-16T18:12:21.138Z,10.67
2023-03-16T18:14:48.124Z,11.80
2023-03-16T18:17:28.198Z,12.07
2023-03-16T18:19:55.887Z,9.57
2023-03-16T18:22:24.798Z,10.67
2023-03-16T18:24:54.003Z,12.83
2023-03-16T18:27:21.319Z,9.73
2023-03-16T18:29:48.206Z,12.77
2023-03-16T18:32:26.046Z,7.97
2023-03-16T18:34:54.056Z,13.80
2023-03-16T18:37:24.407Z,8.93
2023-03-16T18:39:52.680Z,9.00
2023-03-16T18:42:24.509Z,12.23
2023-03-16T18:44:51.763Z,11.37
2023-03-16T18:47:20.940Z,10.53
2023-03-16T18:49:49.235Z,11.03
2023-03-16T18:52:30.624Z,11.93
2023-03-16T18:54:58.431Z,13.43
2023-03-16T18:57:28.072Z,11.53
2023-03-16T18:59:55.427Z,11.40
2023-03-16T19:02:29.051Z,9.87
2023-03-16T19:05:00.551Z,12.23
2023-03-16T19:07:37.877Z,9.60
2023-03-16T19:10:22.724Z,11.63
2023-03-16T19:12:49.855Z,13.37
2023-03-16T19:15:19.904Z,11.93
2023-03-16T19:17:47.730Z,9.47
2023-03-16T19:20:16.816Z,11.73
2023-03-16T19:22:46.022Z,8.70
2023-03-16T19:25:25.063Z,9.97
2023-03-16T19:27:52.077Z,12.43
2023-03-16T19:30:23.274Z,9.53
2023-03-16T19:32:54.393Z,8.43
2023-03-16T19:35:27.313Z,10.10
2023-03-16T19:38:00.799Z,8.43
2023-03-16T19:40:33.258Z,9.77
2023-03-16T19:43:00.635Z,10.13
2023-03-16T19:45:35.841Z,11.80
2023-03-16T19:48:10.162Z,10.40
2023-03-16T19:50:37.124Z,12.67
2023-03-16T19:53:06.377Z,8.43
2023-03-16T19:55:33.154Z,9.03
2023-03-16T19:58:03.004Z,13.23
2023-03-16T20:00:31.144Z,10.37
2023-03-16T20:02:58.994Z,12.60
2023-03-16T20:05:28.326Z,8.93
2023-03-16T20:07:59.711Z,9.50
2023-03-16T20:10:30.242Z,9.77
2023-03-16T20:12:59.677Z,10.03
2023-03-16T20:15:33.638Z,9.97
2023-03-16T20:18:02.160Z,9.17
2023-03-16T20:20:31.630Z,8.77
2023-03-16T20:22:59.737Z,10.67
2023-03-16T20:25:31.478Z,11.87
2023-03-16T20:28:01.985Z,8.70
2023-03-16T20:30:31.843Z,8.73
2023-03-16T20:33:16.709Z,8.67
2023-03-16T20:35:47.023Z,9.37
2023-03-16T20:38:27.929Z,8.53
2023-03-16T20:41:34.161Z,10.57
2023-03-16T20:46:50.600Z,10.17
2023-03-16T20:49:25.280Z,10.03
2023-03-16T20:51:53.305Z,8.10
2023-03-16T20:54:21.155Z,9.50
2023-03-16T20:56:48.329Z,8.13
2023-03-16T20:59:23.970Z,15.77
2023-03-16T21:01:52.120Z,10.20
2023-03-16T21:04:29.760Z,10.70
2023-03-16T21:06:56.932Z,10.20
2023-03-16T21:09:23.679Z,7.57
2023-03-16T21:11:50.545Z,9.00
2023-03-16T21:14:22.091Z,8.00
2023-03-16T21:16:50.533Z,10.57
2023-03-16T21:19:19.692Z,9.07
2023-03-16T21:21:46.531Z,9.57
2023-03-16T21:24:13.224Z,9.73
2023-03-16T21:26:41.961Z,8.63
2023-03-16T21:29:13.571Z,10.43
2023-03-16T21:31:42.919Z,10.77
2023-03-16T21:34:27.524Z,9.13
2023-03-16T21:36:54.408Z,10.47
2023-03-16T21:39:25.563Z,9.93
2023-03-16T21:41:52.573Z,8.87
2023-03-16T21:44:19.624Z,8.73
2023-03-16T21:46:47.472Z,9.07
2023-03-16T21:49:14.612Z,10.97
2023-03-16T21:51:43.339Z,11.63
2023-03-16T21:54:16.916Z,10.63
2023-03-16T21:56:45.166Z,6.67
2023-03-16T21:59:12.283Z,10.33
2023-03-16T22:01:50.969Z,9.77
2023-03-16T22:04:25.099Z,11.50
2023-03-16T22:06:52.162Z,12.70
2023-03-16T22:09:20.745Z,9.90
2023-03-16T22:11:47.385Z,11.03
2023-03-16T22:14:14.019Z,9.60
2023-03-16T22:16:41.017Z,10.57
2023-03-16T22:19:11.666Z,10.77
2023-03-16T22:21:40.973Z,12.40
2023-03-16T22:24:23.522Z,10.17
2023-03-16T22:26:51.197Z,12.73
2023-03-16T22:29:25.440Z,12.53
2023-03-16T22:31:55.633Z,11.07
2023-03-16T22:34:43.137Z,10.60
2023-03-16T22:37:11.057Z,9.87
2023-03-16T22:39:38.718Z,11.63
2023-03-16T22:42:37.415Z,10.10
2023-03-16T22:45:14.429Z,10.93
2023-03-16T22:47:41.944Z,10.97
2023-03-16T22:50:13.856Z,12.47
2023-03-16T22:52:40.505Z,12.27
2023-03-16T22:55:08.783Z,12.77
2023-03-16T22:57:35.431Z,9.83
2023-03-16T23:00:11.115Z,14.57
2023-03-16T23:02:38.799Z,12.70
2023-03-16T23:05:19.489Z,15.37
2023-03-16T23:07:46.766Z,11.53
2023-03-16T23:10:18.191Z,9.97
2023-03-16T23:12:49.444Z,10.67
2023-03-16T23:15:21.202Z,12.87
2023-03-16T23:17:47.902Z,12.23
2023-03-16T23:20:23.783Z,14.23
2023-03-16T23:22:51.115Z,9.90
2023-03-16T23:25:18.540Z,10.90
2023-03-16T23:27:45.208Z,10.47
2023-03-16T23:30:22.045Z,13.87
2023-03-16T23:32:50.210Z,10.63
2023-03-16T23:35:23.596Z,11.53
2023-03-16T23:37:52.113Z,13.80
2023-03-16T23:40:19.699Z,13.20
2023-03-16T23:42:47.729Z,11.30
2023-03-16T23:45:32.627Z,13.90
2023-03-16T23:48:01.182Z,11.10
2023-03-16T23:50:33.212Z,11.97
2023-03-16T23:53:00.013Z,11.33
2023-03-16T23:55:26.650Z,13.60
2023-03-16T23:57:54.732Z,13.23
